createdAt,value
2023-04-09T00:30:04.893Z,97353.84
2023-04-09T00:40:06.989Z,97351.31
2023-04-09T00:50:08.968Z,97350.06
2023-04-09T00:55:05.787Z,97353.47
2023-04-09T00:59:57.620Z,97351.69
2023-04-09T01:04:52.490Z,97347.16
2023-04-09T01:09:57.461Z,97341.84
2023-04-09T01:15:19.048Z,97342.72
2023-04-09T01:26:08.060Z,97337.22
2023-04-09T01:36:14.661Z,97332.31
2023-04-09T01:41:08.760Z,97337.69
2023-04-09T01:51:09.396Z,97339.41
2023-04-09T01:56:03.560Z,97351.44
2023-04-09T02:01:13.519Z,97353.00
2023-04-09T02:11:38.164Z,97346.66
2023-04-09T02:16:32.636Z,97346.31
2023-04-09T02:21:24.378Z,97346.72
2023-04-09T02:26:16.175Z,97340.59
2023-04-09T02:31:08.133Z,97339.09
2023-04-09T02:35:59.851Z,97339.09
2023-04-09T02:40:51.578Z,97338.69
2023-04-09T02:45:43.253Z,97345.19
2023-04-09T02:50:35.017Z,97342.03
2023-04-09T02:55:26.830Z,97345.06
2023-04-09T03:00:18.503Z,97342.19
2023-04-09T03:05:10.445Z,97341.63
2023-04-09T03:10:02.115Z,97334.94
2023-04-09T03:14:53.915Z,97334.97
2023-04-09T03:19:45.634Z,97332.09
2023-04-09T03:24:37.390Z,97321.44
2023-04-09T03:29:29.052Z,97311.44
2023-04-09T03:34:20.910Z,97324.06
2023-04-09T03:39:12.578Z,97322.13
2023-04-09T03:44:04.369Z,97318.81
2023-04-09T03:48:56.039Z,97326.50
2023-04-09T03:53:47.713Z,97322.97
2023-04-09T03:58:39.382Z,97314.41
2023-04-09T04:03:31.785Z,97308.44
2023-04-09T04:08:23.607Z,97315.28
2023-04-09T04:13:15.318Z,97314.41
2023-04-09T04:18:07.033Z,97323.41
2023-04-09T04:22:58.939Z,97319.75
2023-04-09T04:27:51.840Z,97318.00
2023-04-09T04:32:43.971Z,97321.88
2023-04-09T04:37:35.852Z,97328.38
2023-04-09T04:42:27.549Z,97333.06
2023-04-09T04:47:23.059Z,97332.91
2023-04-09T04:52:17.883Z,97329.25
2023-04-09T04:57:10.454Z,97336.66
2023-04-09T05:02:02.588Z,97344.03
2023-04-09T05:06:55.272Z,97337.59
2023-04-09T05:11:46.995Z,97348.59
2023-04-09T05:16:38.919Z,97363.94
2023-04-09T05:21:31.835Z,97374.56
2023-04-09T05:26:23.826Z,97368.94
2023-04-09T05:31:16.136Z,97372.19
2023-04-09T05:36:08.687Z,97380.56
2023-04-09T05:41:04.302Z,97373.53
2023-04-09T05:51:01.665Z,97371.72
2023-04-09T05:55:53.365Z,97363.28
2023-04-09T06:00:45.633Z,97366.97
2023-04-09T06:05:37.800Z,97366.88
2023-04-09T06:10:32.018Z,97367.41
2023-04-09T06:15:24.405Z,97364.59
2023-04-09T06:20:19.890Z,97368.28
2023-04-09T06:25:12.215Z,97364.78
2023-04-09T06:30:04.941Z,97369.03
2023-04-09T06:34:57.550Z,97366.50
2023-04-09T06:40:00.678Z,97379.97
2023-04-09T06:44:53.914Z,97376.34
2023-04-09T06:49:46.456Z,97376.66
2023-04-09T06:59:46.330Z,97386.34
2023-04-09T07:14:52.165Z,97378.50
2023-04-09T07:19:44.235Z,97376.72
2023-04-09T07:24:36.228Z,97380.66
2023-04-09T07:29:28.612Z,97381.75
2023-04-09T07:34:24.850Z,97379.13
2023-04-09T07:39:20.265Z,97382.25
2023-04-09T07:44:16.650Z,97388.38
2023-04-09T07:49:09.141Z,97377.97
2023-04-09T07:54:01.233Z,97377.00
2023-04-09T07:58:54.755Z,97371.69
2023-04-09T08:03:46.749Z,97357.22
2023-04-09T08:08:38.750Z,97374.97
2023-04-09T08:13:30.667Z,97378.94
2023-04-09T08:18:22.696Z,97377.47
2023-04-09T08:23:14.377Z,97376.63
2023-04-09T08:28:17.154Z,97381.94
2023-04-09T08:33:10.894Z,97373.31
2023-04-09T08:38:04.513Z,97381.41
2023-04-09T08:48:09.792Z,97380.19
2023-04-09T08:53:07.969Z,97377.75
2023-04-09T08:57:59.673Z,97381.69
2023-04-09T09:03:15.303Z,97384.06
2023-04-09T09:08:21.793Z,97381.50
2023-04-09T09:13:28.014Z,97381.06
2023-04-09T09:18:19.785Z,97381.59
2023-04-09T09:23:11.526Z,97388.63
2023-04-09T09:28:10.259Z,97390.59
2023-04-09T09:33:06.287Z,97395.22
2023-04-09T09:38:04.488Z,97385.41
2023-04-09T09:42:57.726Z,97385.31
2023-04-09T09:47:50.437Z,97384.97
2023-04-09T09:52:46.108Z,97380.59
2023-04-09T09:57:44.056Z,97382.44
2023-04-09T10:02:47.980Z,97383.59
2023-04-09T10:07:40.972Z,97384.94
2023-04-09T10:12:34.027Z,97383.16
2023-04-09T10:17:26.380Z,97385.63
2023-04-09T10:22:26.040Z,97364.44
2023-04-09T10:27:18.239Z,97371.34
2023-04-09T10:32:11.510Z,97375.28
2023-04-09T10:37:03.882Z,97369.44
2023-04-09T10:41:58.053Z,97388.13
2023-04-09T10:46:57.638Z,97381.47
2023-04-09T10:52:12.003Z,97370.06
2023-04-09T10:57:21.425Z,97361.06
2023-04-09T11:02:59.342Z,97349.16
2023-04-09T11:08:10.657Z,97345.59
2023-04-09T11:13:03.221Z,97342.91
2023-04-09T11:17:55.634Z,97347.13
2023-04-09T11:22:50.662Z,97339.38
2023-04-09T11:27:46.905Z,97336.91
2023-04-09T11:32:38.859Z,97327.22
2023-04-09T11:37:30.834Z,97335.38
2023-04-09T11:42:22.552Z,97341.84
2023-04-09T11:47:17.172Z,97342.00
2023-04-09T11:52:09.368Z,97351.56
2023-04-09T11:57:03.740Z,97346.75
2023-04-09T12:01:58.579Z,97342.06
2023-04-09T12:06:50.717Z,97348.78
2023-04-09T12:11:48.259Z,97343.28
2023-04-09T12:16:44.547Z,97332.19
2023-04-09T12:22:08.719Z,97329.00
2023-04-09T12:27:01.491Z,97318.53
2023-04-09T12:31:53.982Z,97319.41
2023-04-09T12:36:45.754Z,97313.91
2023-04-09T12:41:37.590Z,97315.50
2023-04-09T12:46:29.426Z,97319.91
2023-04-09T12:51:21.255Z,97316.09
2023-04-09T12:56:13.113Z,97314.06
2023-04-09T13:01:05.279Z,97310.34
2023-04-09T13:05:57.427Z,97313.38
2023-04-09T13:10:49.570Z,97309.13
2023-04-09T13:15:46.159Z,97302.88
2023-04-09T13:20:37.865Z,97284.84
2023-04-09T13:25:29.748Z,97277.66
2023-04-09T13:30:24.433Z,97283.00
2023-04-09T13:35:16.200Z,97274.09
2023-04-09T13:40:09.069Z,97275.88
2023-04-09T13:45:00.909Z,97274.19
2023-04-09T13:49:53.057Z,97262.28
2023-04-09T13:54:44.763Z,97270.13
2023-04-09T13:59:37.995Z,97267.13
2023-04-09T14:04:30.276Z,97258.97
2023-04-09T14:09:22.059Z,97257.22
2023-04-09T14:14:13.733Z,97248.72
2023-04-09T14:19:06.363Z,97251.81
2023-04-09T14:23:58.066Z,97241.72
2023-04-09T14:28:51.630Z,97238.28
2023-04-09T14:33:43.647Z,97243.09
2023-04-09T14:38:35.371Z,97230.31
2023-04-09T14:43:28.134Z,97242.88
2023-04-09T14:48:20.199Z,97232.81
2023-04-09T14:53:16.641Z,97219.97
2023-04-09T14:58:09.719Z,97215.34
2023-04-09T15:03:02.297Z,97214.84
2023-04-09T15:07:59.636Z,97217.97
2023-04-09T15:12:51.773Z,97211.41
2023-04-09T15:17:52.250Z,97206.38
2023-04-09T15:22:44.001Z,97210.31
2023-04-09T15:27:35.903Z,97214.72
2023-04-09T15:32:29.748Z,97209.88
2023-04-09T15:42:37.385Z,97201.97
2023-04-09T15:57:47.955Z,97203.34
2023-04-09T16:18:08.776Z,97205.09
2023-04-09T16:33:29.520Z,97205.28
2023-04-09T16:38:34.662Z,97201.75
2023-04-09T16:43:34.765Z,97192.94
2023-04-09T16:48:52.063Z,97197.63
2023-04-09T16:53:44.031Z,97191.66
2023-04-09T16:58:35.755Z,97194.31
2023-04-09T17:03:28.050Z,97197.88
2023-04-09T17:08:24.306Z,97192.28
2023-04-09T17:13:16.307Z,97194.44
2023-04-09T17:18:07.991Z,97189.84
2023-04-09T17:22:59.892Z,97192.00
2023-04-09T17:27:51.691Z,97190.56
2023-04-09T17:53:27.519Z,97216.03
2023-04-09T17:58:20.582Z,97214.31
2023-04-09T18:29:10.126Z,97258.19
2023-04-09T18:39:09.588Z,97275.53
2023-04-09T18:44:02.234Z,97277.41
2023-04-09T19:04:12.862Z,97308.47
2023-04-09T19:09:05.725Z,97317.03
2023-04-09T19:13:58.219Z,97317.47
2023-04-09T19:18:50.487Z,97316.91
2023-04-09T19:23:43.299Z,97321.56
2023-04-09T19:28:35.776Z,97314.31
2023-04-09T19:33:29.398Z,97323.19
2023-04-09T19:38:26.038Z,97326.81
2023-04-09T19:43:17.782Z,97320.78
2023-04-09T19:48:11.942Z,97334.69
2023-04-09T19:53:07.078Z,97325.25
2023-04-09T19:57:59.175Z,97333.09
2023-04-09T20:02:55.669Z,97327.66
2023-04-09T20:07:51.008Z,97323.22
2023-04-09T20:18:14.116Z,97334.06
2023-04-09T20:23:15.727Z,97329.44
2023-04-09T20:33:21.302Z,97329.81
2023-04-09T20:38:21.665Z,97338.47
2023-04-09T20:43:14.446Z,97329.16
2023-04-09T20:48:07.812Z,97339.16
2023-04-09T20:53:00.610Z,97340.75
2023-04-09T20:57:56.408Z,97342.22
2023-04-09T21:07:54.874Z,97337.13
2023-04-09T21:12:46.884Z,97327.03
2023-04-09T21:17:40.040Z,97324.06
2023-04-09T21:22:33.637Z,97328.66
2023-04-09T21:27:25.434Z,97328.13
2023-04-09T21:32:31.336Z,97329.31
2023-04-09T21:42:42.648Z,97323.56
2023-04-09T21:47:44.806Z,97320.13
2023-04-09T21:52:37.273Z,97318.56
2023-04-09T21:57:36.882Z,97315.44
2023-04-09T22:02:48.723Z,97314.13
2023-04-09T22:07:46.125Z,97319.28
2023-04-09T22:17:44.545Z,97325.75
2023-04-09T22:22:40.320Z,97332.88
2023-04-09T22:27:33.792Z,97334.19
2023-04-09T22:32:27.164Z,97342.97
2023-04-09T22:42:25.981Z,97333.72
2023-04-09T22:57:32.226Z,97327.06
2023-04-09T23:02:24.785Z,97323.13
2023-04-09T23:07:17.527Z,97324.50
2023-04-09T23:12:09.982Z,97327.81
2023-04-09T23:17:08.008Z,97325.66
2023-04-09T23:22:02.458Z,97322.16
2023-04-09T23:26:56.399Z,97318.22
2023-04-09T23:31:48.533Z,97310.03
2023-04-09T23:36:41.340Z,97304.03
2023-04-09T23:41:33.736Z,97295.84
2023-04-09T23:46:29.273Z,97301.78
2023-04-09T23:51:24.646Z,97289.94
2023-04-09T23:56:17.354Z,97296.88
